CYKD

Details ICAO CYKD (LAK)
Name AKLAVIK
Region Canada
Timezone America/Yellowknife (UTC-6.0)
Plans Departing 9
Arriving 15
Stats Elevation 23 ft / 7 m (AMSL)
Location 68.223332° -135.005835°
Runways 1
Magnetic Variation 21.107° E
Sunrise Unknown / Unknown
Sunset Unknown / Unknown
Advertisement - Login to hide

Runways

ID Width Length Bearing (true) Bearing (mag) Surface Threshold Offset Overrun Length
13 75 ft / 23 m 2,963 ft / 903 m 152.83° 131.72° Gravel 0 ft / 0 m 0 ft / 0 m
31 75 ft / 23 m 2,963 ft / 903 m 332.84° 311.73° Gravel 0 ft / 0 m 0 ft / 0 m

Map

Weather


0- 5 10 15 20 25 30 35+ Temperature / ° C

Clouds and Precipitation
Forecast for 2018-06-24 12:00 UTC. Updated 5 hours ago

Ground ~20,000 ft ~40,000 ft Winds

METAR

CYKD 241400Z 36004KT 320V030 15SM BKN007 OVC016 06/05 A3004 RMK ST6SC2 0.2/CIG RAG SLP175

TAF

Not found

Frequencies

Unicom 122.10 MHz CTAF
Warning: Do not use this data for real-world aviation or navigation. No guarantee of current accuracy is given.